Time;durP1;ratioP1;P1;durP2;ratioP2;P2;SDS_P1;SDS_P2;PMS_P1;PMS_P2;Temp;Humidity;BMP_temperature;BMP_pressure;BME280_temperature;BME280_humidity;BME280_pressure;Samples;Min_cycle;Max_cycle;Signal;HPM_P1;HPM_P2
2022/07/20 00:01:37;;;;;;;10.73;3.65;;;26.60;97.70;;;;;;4856843;29;37618;-81
2022/07/20 00:04:03;;;;;;;3.28;2.63;;;26.40;97.80;;;;;;4875044;29;38783;-80
2022/07/20 00:06:29;;;;;;;7.10;2.80;;;26.30;99.00;;;;;;4857013;29;36232;-81
2022/07/20 00:11:40;;;;;;;4.25;2.38;;;26.00;99.90;;;;;;4872746;29;49070;-81
2022/07/20 00:14:06;;;;;;;3.67;2.50;;;25.90;99.90;;;;;;4857270;29;38603;-81
2022/07/20 00:16:34;;;;;;;3.72;2.78;;;25.70;99.90;;;;;;4863274;29;37166;-80
2022/07/20 00:19:00;;;;;;;3.88;3.13;;;25.60;99.80;;;;;;4854254;29;38707;-81
2022/07/20 00:21:26;;;;;;;6.10;3.17;;;25.50;99.90;;;;;;4856037;29;37184;-81
2022/07/20 00:23:53;;;;;;;4.47;2.75;;;25.40;99.90;;;;;;4857851;29;36818;-81
2022/07/20 00:26:19;;;;;;;5.10;2.65;;;25.30;99.90;;;;;;4852559;29;36486;-80
2022/07/20 00:28:45;;;;;;;6.50;3.10;;;25.10;99.90;;;;;;4841188;29;38643;-80
2022/07/20 00:31:11;;;;;;;4.05;2.70;;;25.00;99.90;;;;;;4869874;29;39354;-81
2022/07/20 00:33:37;;;;;;;3.83;2.85;;;25.00;99.90;;;;;;4873735;29;37947;-81
2022/07/20 00:36:04;;;;;;;6.75;2.90;;;24.90;99.90;;;;;;4856335;29;36102;-82
2022/07/20 00:38:30;;;;;;;5.22;2.60;;;24.80;99.90;;;;;;4855229;29;38601;-81
2022/07/20 00:40:56;;;;;;;7.50;2.90;;;24.70;99.90;;;;;;4854597;29;37346;-82
2022/07/20 00:43:22;;;;;;;5.22;2.80;;;24.70;99.90;;;;;;4873162;29;37827;-82
2022/07/20 00:45:48;;;;;;;7.88;2.72;;;24.70;99.90;;;;;;4873498;29;37062;-82
2022/07/20 00:48:14;;;;;;;4.30;3.03;;;24.60;99.90;;;;;;4857297;29;39085;-82
2022/07/20 00:50:41;;;;;;;3.70;3.08;;;24.60;99.90;;;;;;4856491;29;38417;-82
2022/07/20 00:53:07;;;;;;;8.13;2.97;;;24.40;99.90;;;;;;4870928;29;38264;-83
2022/07/20 00:55:34;;;;;;;4.57;3.17;;;24.30;99.90;;;;;;4856297;29;35863;-82
2022/07/20 00:58:00;;;;;;;5.00;3.25;;;24.40;99.90;;;;;;4872980;29;40057;-82
2022/07/20 01:00:27;;;;;;;8.35;4.72;;;24.40;99.90;;;;;;4872933;29;39164;-82
2022/07/20 01:02:53;;;;;;;15.60;6.50;;;24.40;99.90;;;;;;4873334;29;38391;-82
2022/07/20 01:05:19;;;;;;;13.95;7.45;;;24.40;99.90;;;;;;4857126;29;36026;-82
2022/07/20 01:07:47;;;;;;;15.63;8.32;;;24.50;99.90;;;;;;4857355;29;37840;-82
2022/07/20 01:10:15;;;;;;;17.48;9.98;;;24.50;99.90;;;;;;4854560;29;37118;-82
2022/07/20 01:12:48;;;;;;;22.05;11.30;;;24.40;99.90;;;;;;4872450;29;37878;-82
2022/07/20 01:15:15;;;;;;;23.65;13.50;;;24.40;99.90;;;;;;4857938;29;37221;-83
2022/07/20 01:17:42;;;;;;;25.83;14.30;;;24.20;99.90;;;;;;4874717;29;39609;-81
2022/07/20 01:20:13;;;;;;;26.80;14.25;;;24.10;99.90;;;;;;4856749;29;37040;-82
2022/07/20 01:22:40;;;;;;;30.45;16.55;;;24.00;99.90;;;;;;4857628;29;37186;-81
2022/07/20 01:25:06;;;;;;;25.52;16.38;;;23.90;99.90;;;;;;4856425;29;36406;-83
2022/07/20 01:27:33;;;;;;;29.55;17.17;;;23.80;99.90;;;;;;4856664;29;37780;-82
2022/07/20 01:29:59;;;;;;;30.52;16.45;;;23.70;99.90;;;;;;4858399;29;36966;-82
2022/07/20 01:32:25;;;;;;;31.15;18.27;;;23.70;99.90;;;;;;4859999;29;37830;-82
2022/07/20 01:34:51;;;;;;;31.02;20.02;;;23.60;99.90;;;;;;4858592;29;36871;-82
2022/07/20 01:37:17;;;;;;;33.85;20.40;;;23.50;99.90;;;;;;4873243;29;38453;-82
2022/07/20 01:39:43;;;;;;;30.90;21.25;;;23.40;99.90;;;;;;4857539;29;38192;-81
2022/07/20 01:42:09;;;;;;;44.78;23.35;;;23.40;99.90;;;;;;4873058;29;38527;-83
2022/07/20 01:44:35;;;;;;;35.00;21.88;;;23.30;99.90;;;;;;4854075;29;36162;-81
2022/07/20 01:47:02;;;;;;;37.55;23.52;;;23.30;99.90;;;;;;4873806;29;38937;-82
2022/07/20 01:49:28;;;;;;;36.58;23.23;;;23.30;99.90;;;;;;4858304;29;37638;-83
2022/07/20 01:51:54;;;;;;;34.70;23.77;;;23.30;99.90;;;;;;4857159;29;36999;-83
2022/07/20 01:54:20;;;;;;;37.03;24.42;;;23.30;99.90;;;;;;4872866;29;37894;-82
2022/07/20 01:56:46;;;;;;;42.58;24.88;;;23.20;99.90;;;;;;4855849;29;37927;-82
2022/07/20 01:59:12;;;;;;;42.53;26.35;;;23.20;99.90;;;;;;4855837;29;37282;-82
2022/07/20 02:01:38;;;;;;;43.65;26.88;;;23.10;99.90;;;;;;4855226;29;38103;-82
2022/07/20 02:04:05;;;;;;;41.85;26.67;;;23.10;99.90;;;;;;4856090;29;36379;-83
2022/07/20 02:06:32;;;;;;;42.70;27.63;;;23.10;99.90;;;;;;4856849;29;37465;-83
2022/07/20 02:08:58;;;;;;;40.15;27.73;;;23.10;99.90;;;;;;4855536;29;38220;-82
2022/07/20 02:11:24;;;;;;;42.92;28.65;;;23.10;99.90;;;;;;4867272;29;38079;-83
2022/07/20 02:13:50;;;;;;;42.15;28.77;;;23.00;99.90;;;;;;4858934;29;37165;-82
2022/07/20 02:16:16;;;;;;;40.58;26.17;;;23.00;99.90;;;;;;4859085;29;37752;-83
2022/07/20 02:18:43;;;;;;;47.53;29.08;;;23.00;99.90;;;;;;4871302;29;38134;-82
2022/07/20 02:21:10;;;;;;;37.28;28.20;;;23.00;99.90;;;;;;4876357;29;38283;-82
2022/07/20 02:23:36;;;;;;;41.40;29.77;;;23.00;99.90;;;;;;4860135;29;36259;-82
2022/07/20 02:26:03;;;;;;;39.03;27.98;;;23.00;99.90;;;;;;4875266;29;39479;-82
2022/07/20 02:28:29;;;;;;;41.20;28.02;;;23.00;99.90;;;;;;4859075;29;38797;-82
2022/07/20 02:30:55;;;;;;;40.72;29.13;;;23.00;99.90;;;;;;4857761;29;37078;-82
2022/07/20 02:33:21;;;;;;;39.97;27.50;;;23.00;99.90;;;;;;4877082;29;38492;-81
2022/07/20 02:35:48;;;;;;;44.40;30.42;;;22.90;99.90;;;;;;4873456;29;39143;-82
2022/07/20 02:38:14;;;;;;;40.78;28.80;;;22.80;99.90;;;;;;4875059;29;38701;-81
2022/07/20 02:40:40;;;;;;;40.08;26.88;;;22.80;99.90;;;;;;4875735;29;37462;-82
2022/07/20 02:43:06;;;;;;;47.40;30.67;;;22.80;99.90;;;;;;4855731;29;37462;-82
2022/07/20 02:45:33;;;;;;;42.50;28.90;;;22.70;99.90;;;;;;4867288;29;38513;-82
2022/07/20 02:48:05;;;;;;;41.70;29.00;;;22.70;99.90;;;;;;4857619;29;37818;-83
2022/07/20 02:50:38;;;;;;;44.05;30.30;;;22.70;99.90;;;;;;4857589;29;47096;-82
2022/07/20 02:53:05;;;;;;;41.22;28.67;;;22.70;99.90;;;;;;4871411;29;38471;-82
2022/07/20 02:55:31;;;;;;;43.15;28.08;;;22.60;99.90;;;;;;4858183;29;39037;-82
2022/07/20 02:57:58;;;;;;;42.70;29.00;;;22.60;99.90;;;;;;4875196;29;37948;-82
2022/07/20 03:00:24;;;;;;;44.58;29.02;;;22.60;99.90;;;;;;4859256;29;37308;-82
2022/07/20 03:02:51;;;;;;;45.25;30.13;;;22.60;99.90;;;;;;4856844;29;36264;-82
2022/07/20 03:05:18;;;;;;;41.63;28.63;;;22.50;99.90;;;;;;4855980;29;37677;-83
2022/07/20 03:07:44;;;;;;;39.92;27.70;;;22.50;99.90;;;;;;4874868;29;38399;-82
2022/07/20 03:10:11;;;;;;;38.30;28.60;;;22.50;99.90;;;;;;4858366;29;36818;-82
2022/07/20 03:12:37;;;;;;;43.08;29.08;;;22.50;99.90;;;;;;4873265;29;38442;-83
2022/07/20 03:15:05;;;;;;;48.85;29.90;;;22.50;99.90;;;;;;4859291;29;39005;-83
2022/07/20 03:17:31;;;;;;;39.03;27.80;;;22.50;99.90;;;;;;4876006;29;37641;-83
2022/07/20 03:19:57;;;;;;;40.50;28.35;;;22.50;99.90;;;;;;4856908;29;37532;-82
2022/07/20 03:22:23;;;;;;;44.10;29.23;;;22.50;99.90;;;;;;4874789;29;37579;-83
2022/07/20 03:24:49;;;;;;;42.92;29.75;;;22.50;99.90;;;;;;4858072;29;37839;-83
2022/07/20 03:27:16;;;;;;;39.00;27.77;;;22.50;99.90;;;;;;4863164;29;37693;-83
2022/07/20 03:29:42;;;;;;;44.28;27.70;;;22.50;99.90;;;;;;4855448;29;37781;-83
2022/07/20 03:32:08;;;;;;;39.65;28.55;;;22.50;99.90;;;;;;4857643;29;37128;-83
2022/07/20 03:34:34;;;;;;;43.22;27.80;;;22.50;99.90;;;;;;4874938;29;39886;-83
2022/07/20 03:37:00;;;;;;;45.35;28.45;;;22.50;99.90;;;;;;4854254;29;36915;-83
2022/07/20 03:39:26;;;;;;;39.50;27.25;;;22.50;99.90;;;;;;4867591;29;37793;-83
2022/07/20 03:41:53;;;;;;;38.33;27.60;;;22.50;99.90;;;;;;4857406;29;37451;-83
2022/07/20 03:44:19;;;;;;;34.20;26.08;;;22.50;99.90;;;;;;4857749;29;38913;-83
2022/07/20 03:46:46;;;;;;;38.05;26.77;;;22.50;99.90;;;;;;4857381;29;20050;-84
2022/07/20 03:49:12;;;;;;;36.45;25.73;;;22.50;99.90;;;;;;4860895;29;38645;-83
2022/07/20 03:51:38;;;;;;;43.28;28.88;;;22.50;99.90;;;;;;4874955;29;37800;-82
2022/07/20 03:54:07;;;;;;;34.85;24.58;;;22.50;99.90;;;;;;4853293;29;38948;-82
2022/07/20 03:56:39;;;;;;;38.75;26.05;;;22.50;99.90;;;;;;4857324;29;38227;-82
2022/07/20 03:59:07;;;;;;;34.22;24.25;;;22.50;99.90;;;;;;4857959;29;37311;-83
2022/07/20 04:01:33;;;;;;;31.98;23.48;;;22.60;99.90;;;;;;4860460;29;36300;-83
2022/07/20 04:03:59;;;;;;;32.78;22.75;;;22.60;99.90;;;;;;4857333;29;37682;-83
2022/07/20 04:06:25;;;;;;;32.08;22.00;;;22.60;99.90;;;;;;4871686;29;37524;-83
2022/07/20 04:08:52;;;;;;;31.65;20.67;;;22.70;99.90;;;;;;4857709;29;38557;-83
2022/07/20 04:11:18;;;;;;;32.45;20.95;;;22.70;99.90;;;;;;4857890;29;36691;-81
2022/07/20 04:13:44;;;;;;;28.98;19.27;;;22.80;99.90;;;;;;4856371;29;39336;-83
2022/07/20 04:16:10;;;;;;;30.15;19.33;;;22.80;99.90;;;;;;4854976;29;38899;-82
2022/07/20 04:18:36;;;;;;;26.33;19.58;;;22.80;99.90;;;;;;4858715;29;37738;-83
2022/07/20 04:21:02;;;;;;;25.20;18.15;;;22.80;99.90;;;;;;4856222;29;36650;-82
2022/07/20 04:23:29;;;;;;;29.90;19.05;;;22.80;99.90;;;;;;4863569;29;38411;-83
2022/07/20 04:25:55;;;;;;;32.47;19.45;;;22.80;99.90;;;;;;4857156;29;37268;-83
2022/07/20 04:28:21;;;;;;;33.25;18.58;;;22.80;99.90;;;;;;4854200;29;37973;-83
2022/07/20 04:30:47;;;;;;;30.58;18.23;;;22.80;99.90;;;;;;4857186;29;37558;-83
2022/07/20 04:33:13;;;;;;;30.45;17.23;;;22.70;99.90;;;;;;4861765;29;38895;-83
2022/07/20 04:35:39;;;;;;;29.27;18.35;;;22.70;99.90;;;;;;4857507;29;38946;-83
2022/07/20 04:38:05;;;;;;;23.23;16.70;;;22.70;99.90;;;;;;4862279;29;36929;-83
2022/07/20 04:40:32;;;;;;;21.70;14.75;;;22.70;99.90;;;;;;4874877;29;37224;-83
2022/07/20 04:42:58;;;;;;;26.65;16.02;;;22.70;99.90;;;;;;4856041;29;38317;-83
2022/07/20 04:45:24;;;;;;;22.60;15.40;;;22.60;99.90;;;;;;4855482;29;37152;-83
2022/07/20 04:47:50;;;;;;;23.48;14.85;;;22.50;99.90;;;;;;4857617;29;37152;-83
2022/07/20 04:50:16;;;;;;;26.27;14.02;;;22.40;99.90;;;;;;4855808;29;36284;-83
2022/07/20 04:52:42;;;;;;;30.45;14.88;;;22.40;99.90;;;;;;4848675;29;39111;-82
2022/07/20 04:55:08;;;;;;;25.15;13.43;;;22.40;99.90;;;;;;4872305;29;38909;-83
2022/07/20 04:57:34;;;;;;;27.23;14.00;;;22.40;99.90;;;;;;4857856;29;38572;-82
2022/07/20 05:00:02;;;;;;;22.98;13.57;;;22.30;99.90;;;;;;4873934;29;38321;-83
2022/07/20 05:02:28;;;;;;;27.83;13.40;;;22.30;99.90;;;;;;4855161;29;46629;-82
2022/07/20 05:04:54;;;;;;;29.05;13.68;;;22.30;99.90;;;;;;4857379;29;38344;-83
2022/07/20 05:07:20;;;;;;;22.00;12.77;;;22.30;99.90;;;;;;4857094;29;37319;-83
2022/07/20 05:09:46;;;;;;;27.23;12.52;;;22.20;99.90;;;;;;4857721;29;37116;-83
2022/07/20 05:12:12;;;;;;;24.13;12.68;;;22.30;99.90;;;;;;4854261;29;37402;-82
2022/07/20 05:14:38;;;;;;;21.95;12.30;;;22.20;99.90;;;;;;4872840;29;38662;-82
2022/07/20 05:17:04;;;;;;;22.38;11.75;;;22.30;99.90;;;;;;4854764;29;39846;-82
2022/07/20 05:19:31;;;;;;;23.83;12.55;;;22.40;99.90;;;;;;4869897;29;38039;-82
2022/07/20 05:21:57;;;;;;;25.00;11.32;;;22.40;99.90;;;;;;4857393;29;38984;-82
2022/07/20 05:24:24;;;;;;;21.42;11.57;;;22.40;99.90;;;;;;4857340;29;37166;-82
2022/07/20 05:26:50;;;;;;;22.13;11.15;;;22.40;99.90;;;;;;4855491;29;36969;-81
2022/07/20 05:29:17;;;;;;;19.10;11.15;;;22.50;99.90;;;;;;4870013;29;37601;-83
2022/07/20 05:31:43;;;;;;;18.77;10.77;;;22.70;99.90;;;;;;4854575;29;38719;-83
2022/07/20 05:34:09;;;;;;;21.95;10.60;;;22.80;99.90;;;;;;4856510;29;37381;-83
2022/07/20 05:36:35;;;;;;;22.25;10.07;;;23.00;99.90;;;;;;4846238;29;37023;-83
2022/07/20 05:39:02;;;;;;;22.98;10.20;;;23.10;99.90;;;;;;4870153;29;37137;-83
2022/07/20 05:41:28;;;;;;;19.25;10.13;;;23.30;99.90;;;;;;4856926;29;38891;-84
2022/07/20 05:43:54;;;;;;;22.80;10.48;;;23.40;99.90;;;;;;4858063;29;37729;-83
2022/07/20 05:46:20;;;;;;;16.58;9.38;;;23.50;99.90;;;;;;4854948;29;37485;-83
2022/07/20 05:48:46;;;;;;;15.35;9.82;;;23.50;99.90;;;;;;4853846;29;39422;-83
2022/07/20 05:51:12;;;;;;;19.05;8.95;;;23.70;99.90;;;;;;4872967;29;38745;-83
2022/07/20 05:53:38;;;;;;;17.02;8.98;;;23.80;99.90;;;;;;4871715;29;38269;-82
2022/07/20 05:56:05;;;;;;;24.25;10.40;;;23.90;99.90;;;;;;4854669;29;37253;-83
2022/07/20 05:58:31;;;;;;;17.38;8.50;;;23.90;99.90;;;;;;4847010;29;36191;-84
2022/07/20 06:00:57;;;;;;;16.25;8.88;;;24.00;99.90;;;;;;4872853;29;38937;-83
2022/07/20 06:03:23;;;;;;;18.98;9.70;;;24.00;99.90;;;;;;4852686;29;37113;-83
2022/07/20 06:05:49;;;;;;;22.02;10.80;;;24.10;99.90;;;;;;4872454;29;37975;-82
2022/07/20 06:08:15;;;;;;;19.60;9.57;;;24.20;99.90;;;;;;4872191;29;36806;-82
2022/07/20 06:10:42;;;;;;;19.70;9.20;;;24.20;99.90;;;;;;4856655;29;38589;-84
2022/07/20 06:13:08;;;;;;;18.67;9.88;;;24.10;99.90;;;;;;4853451;29;39815;-84
2022/07/20 06:15:34;;;;;;;19.65;9.63;;;23.90;99.90;;;;;;4855114;29;38996;-83
2022/07/20 06:18:01;;;;;;;23.95;10.10;;;23.90;99.90;;;;;;4855276;29;37406;-84
2022/07/20 06:20:27;;;;;;;16.65;8.55;;;23.80;99.90;;;;;;4854590;29;40187;-83
2022/07/20 06:22:53;;;;;;;17.40;9.50;;;23.90;99.90;;;;;;4869052;29;39125;-82
2022/07/20 06:25:20;;;;;;;24.55;10.00;;;23.90;99.90;;;;;;4872642;29;38759;-83
2022/07/20 06:27:47;;;;;;;21.70;9.25;;;24.10;99.90;;;;;;4854204;29;37229;-83
2022/07/20 06:30:13;;;;;;;27.58;10.13;;;24.20;99.90;;;;;;4869262;29;39468;-85
2022/07/20 06:32:39;;;;;;;19.02;9.60;;;24.20;99.90;;;;;;4855796;29;37159;-83
2022/07/20 06:35:06;;;;;;;20.15;8.80;;;23.80;99.90;;;;;;4861454;29;38893;-84
2022/07/20 06:37:32;;;;;;;21.25;9.93;;;23.50;99.90;;;;;;4855262;29;36271;-83
2022/07/20 06:39:58;;;;;;;18.00;9.18;;;23.40;99.90;;;;;;4873557;29;38962;-83
2022/07/20 06:42:24;;;;;;;21.75;9.50;;;23.30;99.90;;;;;;4853908;29;37266;-83
2022/07/20 06:44:50;;;;;;;19.92;9.15;;;23.30;99.90;;;;;;4870317;29;38706;-82
2022/07/20 06:47:17;;;;;;;18.75;9.15;;;23.20;99.90;;;;;;4855957;29;36164;-84
2022/07/20 06:49:43;;;;;;;22.52;9.40;;;23.10;99.90;;;;;;4854209;29;39195;-84
2022/07/20 06:52:09;;;;;;;16.02;9.02;;;22.90;99.90;;;;;;4855761;29;37630;-83
2022/07/20 06:54:38;;;;;;;18.98;9.18;;;22.90;99.90;;;;;;4866121;29;37395;-83
2022/07/20 06:57:04;;;;;;;16.92;8.60;;;22.70;99.90;;;;;;4854048;29;36206;-81
2022/07/20 06:59:30;;;;;;;16.75;9.50;;;22.60;99.90;;;;;;4855803;29;37976;-83
2022/07/20 07:01:57;;;;;;;17.52;9.18;;;22.60;99.90;;;;;;4858590;29;40237;-84
2022/07/20 07:04:23;;;;;;;22.95;9.48;;;22.70;99.90;;;;;;4855200;29;37162;-83
2022/07/20 07:06:49;;;;;;;16.88;9.15;;;22.90;99.90;;;;;;4875625;29;37228;-84
2022/07/20 07:09:15;;;;;;;17.35;9.88;;;23.20;99.90;;;;;;4858355;29;38000;-85
2022/07/20 07:11:41;;;;;;;12.57;8.65;;;23.40;99.90;;;;;;4874048;29;39359;-82
2022/07/20 07:14:08;;;;;;;14.02;8.90;;;23.60;99.90;;;;;;4856149;29;37729;-83
2022/07/20 07:16:34;;;;;;;12.82;7.70;;;23.70;99.90;;;;;;4857751;29;36813;-82
2022/07/20 07:19:00;;;;;;;15.65;7.93;;;23.90;99.90;;;;;;4857604;29;38813;-83
2022/07/20 07:21:26;;;;;;;13.75;8.02;;;24.10;99.90;;;;;;4873648;29;39854;-82
2022/07/20 07:23:52;;;;;;;12.23;7.85;;;24.30;99.90;;;;;;4859438;29;38241;-83
2022/07/20 07:26:20;;;;;;;12.93;7.82;;;24.50;99.90;;;;;;4854724;29;36176;-82
2022/07/20 07:28:47;;;;;;;14.32;7.82;;;24.90;99.90;;;;;;4860336;29;39961;-83
2022/07/20 07:31:13;;;;;;;12.13;7.47;;;24.90;99.90;;;;;;4860991;29;37708;-82
2022/07/20 07:33:39;;;;;;;12.05;7.93;;;25.00;99.90;;;;;;4871750;29;38190;-81
2022/07/20 07:36:05;;;;;;;11.18;7.50;;;25.20;99.90;;;;;;4871929;29;36787;-81
2022/07/20 07:38:32;;;;;;;14.75;8.48;;;25.50;99.90;;;;;;4858377;29;39738;-81
2022/07/20 07:40:59;;;;;;;15.65;8.18;;;25.50;99.90;;;;;;4875147;29;38751;-82
2022/07/20 07:43:25;;;;;;;15.90;7.95;;;25.50;99.90;;;;;;4855898;29;38717;-81
2022/07/20 07:45:51;;;;;;;12.20;7.65;;;25.60;99.90;;;;;;4872518;29;37317;-81
2022/07/20 07:48:17;;;;;;;11.32;7.38;;;25.80;99.90;;;;;;4856995;29;38965;-81
2022/07/20 07:50:44;;;;;;;12.25;7.55;;;25.70;99.90;;;;;;4872180;29;38165;-80
2022/07/20 07:53:11;;;;;;;14.00;7.32;;;25.80;99.90;;;;;;4870759;29;37677;-81
2022/07/20 07:55:39;;;;;;;14.82;6.10;;;25.90;99.90;;;;;;4853340;29;35782;-80
2022/07/20 07:58:06;;;;;;;11.27;5.75;;;26.10;99.90;;;;;;4870735;29;38142;-81
2022/07/20 08:00:33;;;;;;;10.68;5.45;;;26.10;99.90;;;;;;4856896;29;37565;-80
2022/07/20 08:03:03;;;;;;;9.63;5.15;;;26.10;99.90;;;;;;4873676;29;39077;-81
2022/07/20 08:05:29;;;;;;;9.88;5.53;;;25.90;99.90;;;;;;4851299;29;47073;-80
2022/07/20 08:07:55;;;;;;;10.05;5.53;;;25.90;99.90;;;;;;4847898;29;38364;-80
2022/07/20 08:10:22;;;;;;;11.50;4.78;;;25.70;99.90;;;;;;4873947;29;39417;-80
2022/07/20 08:12:49;;;;;;;9.73;5.38;;;25.60;99.90;;;;;;4853569;29;38264;-80
2022/07/20 08:15:15;;;;;;;7.13;4.53;;;25.50;99.90;;;;;;4873801;29;38027;-80
2022/07/20 08:17:45;;;;;;;11.77;3.88;;;25.80;99.90;;;;;;4857591;29;38098;-79
2022/07/20 08:20:12;;;;;;;11.93;4.20;;;25.80;99.90;;;;;;4847397;29;37545;-78
2022/07/20 08:22:38;;;;;;;7.78;3.83;;;25.60;99.90;;;;;;4856372;29;37086;-80
2022/07/20 08:25:05;;;;;;;11.07;4.60;;;25.50;99.90;;;;;;4856959;29;37691;-80
2022/07/20 08:27:31;;;;;;;12.05;4.32;;;25.30;99.90;;;;;;4874049;29;39260;-78
2022/07/20 08:30:01;;;;;;;18.10;5.05;;;25.20;99.90;;;;;;4856734;29;37495;-82
2022/07/20 08:32:27;;;;;;;20.77;5.15;;;24.90;99.90;;;;;;4857784;29;38803;-82
2022/07/20 08:34:53;;;;;;;26.73;5.97;;;24.70;99.90;;;;;;4856913;29;37540;-83
2022/07/20 08:37:19;;;;;;;276.60;31.20;;;24.60;99.90;;;;;;4854786;29;37745;-82
2022/07/20 08:39:45;;;;;;;32.00;6.75;;;24.60;99.90;;;;;;4870849;29;38787;-81
2022/07/20 08:42:13;;;;;;;25.25;6.05;;;24.60;99.90;;;;;;4853462;29;38019;-82
2022/07/20 08:44:40;;;;;;;42.00;7.57;;;24.60;99.90;;;;;;4852191;29;36018;-81
2022/07/20 08:47:10;;;;;;;15.10;5.50;;;24.70;99.90;;;;;;4856459;29;38921;-80
2022/07/20 08:49:44;;;;;;;8.80;5.50;;;24.70;99.90;;;;;;4873233;29;38313;-81
2022/07/20 08:52:10;;;;;;;11.73;5.15;;;24.60;99.90;;;;;;4857074;29;37037;-83
2022/07/20 08:54:36;;;;;;;9.40;5.75;;;24.60;99.90;;;;;;4874017;29;36857;-79
2022/07/20 08:57:10;;;;;;;12.10;6.60;;;24.90;99.90;;;;;;4854531;29;38702;-80
2022/07/20 08:59:36;;;;;;;9.85;6.18;;;24.90;99.90;;;;;;4871277;29;37306;-79
2022/07/20 09:02:07;;;;;;;11.15;6.50;;;24.90;99.90;;;;;;4871279;29;38524;-84
2022/07/20 09:04:58;;;;;;;9.88;5.60;;;25.10;99.90;;;;;;4871976;29;37191;-80
2022/07/20 09:07:45;;;;;;;10.48;6.00;;;25.30;99.90;;;;;;4851216;29;38073;-80
2022/07/20 09:10:14;;;;;;;13.07;6.25;;;25.90;99.90;;;;;;4855804;29;36771;-80
2022/07/20 09:13:00;;;;;;;13.77;7.50;;;26.10;99.90;;;;;;4856826;29;37448;-80
2022/07/20 09:15:44;;;;;;;12.13;7.78;;;25.90;99.90;;;;;;4852005;29;37625;-80
2022/07/20 09:18:19;;;;;;;10.80;7.43;;;25.90;99.90;;;;;;4865825;29;38957;-80
2022/07/20 09:20:49;;;;;;;8.45;6.65;;;26.10;99.90;;;;;;4856439;29;37523;-79
2022/07/20 09:23:41;;;;;;;9.70;6.57;;;26.10;99.90;;;;;;4872987;29;37446;-79
2022/07/20 09:26:10;;;;;;;;;;;26.10;99.90;;;;;;4848759;29;35866;-80
2022/07/20 09:28:51;;;;;;;10.13;6.05;;;26.20;99.90;;;;;;4853342;29;38555;-81
2022/07/20 09:31:22;;;;;;;10.37;5.47;;;25.90;99.90;;;;;;4837625;29;37806;-80
2022/07/20 09:33:52;;;;;;;10.07;5.28;;;25.90;99.90;;;;;;4835759;29;37053;-80
2022/07/20 09:36:20;;;;;;;8.50;4.63;;;25.80;99.90;;;;;;4836859;29;36573;-81
2022/07/20 09:38:47;;;;;;;7.32;4.03;;;25.90;99.90;;;;;;4852015;29;39117;-80
2022/07/20 09:41:29;;;;;;;7.10;3.60;;;25.40;99.90;;;;;;4836106;29;37975;-80
2022/07/20 09:43:57;;;;;;;6.43;3.63;;;25.00;99.90;;;;;;4853148;29;39311;-79
2022/07/20 09:46:26;;;;;;;9.93;4.22;;;24.60;99.90;;;;;;4847488;29;36803;-79
2022/07/20 09:48:58;;;;;;;9.68;4.45;;;24.20;99.90;;;;;;4837605;29;37775;-84
2022/07/20 09:51:29;;;;;;;6.43;3.97;;;23.60;99.90;;;;;;4849579;29;39337;-81
2022/07/20 09:53:58;;;;;;;12.43;4.22;;;23.20;99.90;;;;;;4851509;29;38527;-83
2022/07/20 09:56:26;;;;;;;9.85;4.93;;;23.00;99.90;;;;;;4853757;29;37734;-83
2022/07/20 09:58:54;;;;;;;13.60;5.25;;;22.60;99.90;;;;;;4838251;29;39420;-80
2022/07/20 10:01:32;;;;;;;10.15;5.00;;;22.20;99.90;;;;;;4838544;29;37600;-82
2022/07/20 10:04:00;;;;;;;7.72;4.65;;;22.10;99.90;;;;;;4834374;29;38413;-80
2022/07/20 10:06:27;;;;;;;10.35;4.65;;;22.40;99.90;;;;;;4836919;29;36922;-80
2022/07/20 10:08:54;;;;;;;14.95;5.97;;;22.50;99.90;;;;;;4853812;29;38968;-81
2022/07/20 10:11:22;;;;;;;8.82;5.45;;;22.60;99.90;;;;;;4851117;29;37947;-81
2022/07/20 10:13:50;;;;;;;10.32;4.78;;;22.30;99.90;;;;;;4826951;29;37109;-81
2022/07/20 10:16:31;;;;;;;12.73;5.70;;;22.40;99.90;;;;;;4836508;29;36994;-81
2022/07/20 10:18:58;;;;;;;10.07;5.10;;;22.70;99.90;;;;;;4826953;29;38404;-82
2022/07/20 10:21:31;;;;;;;7.85;4.80;;;22.60;99.90;;;;;;4851799;29;38527;-82
2022/07/20 10:24:30;;;;;;;10.13;5.35;;;22.80;99.90;;;;;;4838292;29;38276;-82
2022/07/20 10:26:56;;;;;;;11.95;5.43;;;22.70;99.90;;;;;;4850750;29;48660;-81
2022/07/20 10:29:36;;;;;;;10.85;5.90;;;22.70;99.90;;;;;;4860740;29;39204;-82
2022/07/20 10:32:20;;;;;;;9.43;5.13;;;23.20;99.90;;;;;;4854342;29;38182;-83
2022/07/20 10:34:51;;;;;;;9.85;5.75;;;23.30;99.90;;;;;;4861719;29;38262;-82
2022/07/20 10:37:37;;;;;;;10.63;5.57;;;23.40;99.90;;;;;;4855708;29;36392;-82
2022/07/20 10:40:07;;;;;;;11.23;5.90;;;23.40;99.90;;;;;;4859856;29;37639;-82
2022/07/20 10:42:34;;;;;;;10.27;5.63;;;23.10;99.90;;;;;;4852592;29;47910;-82
2022/07/20 10:45:19;;;;;;;9.90;5.60;;;22.70;99.90;;;;;;4856421;29;39879;-83
2022/07/20 10:47:48;;;;;;;10.50;6.00;;;22.50;99.90;;;;;;4856264;29;47793;-82
2022/07/20 10:50:22;;;;;;;12.20;6.10;;;22.40;99.90;;;;;;4875126;29;38671;-81
2022/07/20 10:52:50;;;;;;;12.48;6.18;;;22.20;99.90;;;;;;4873291;29;38381;-81
2022/07/20 10:55:37;;;;;;;14.45;7.18;;;22.00;99.90;;;;;;4856136;29;37202;-81
2022/07/20 10:58:04;;;;;;;11.68;7.20;;;21.80;99.90;;;;;;4864859;29;37870;-81
2022/07/20 11:00:36;;;;;;;12.30;6.68;;;21.70;99.90;;;;;;4874838;29;38413;-81
2022/07/20 11:03:03;;;;;;;;;;;21.80;99.90;;;;;;4851624;29;37179;-81
2022/07/20 11:05:29;;;;;;;11.52;7.05;;;21.70;99.90;;;;;;4873938;29;39158;-81
2022/07/20 11:07:56;;;;;;;9.48;6.90;;;21.70;99.90;;;;;;4865797;29;36483;-81
2022/07/20 11:10:27;;;;;;;12.68;7.63;;;21.80;99.90;;;;;;4868313;29;38913;-81
2022/07/20 11:13:02;;;;;;;14.98;7.45;;;22.00;99.90;;;;;;4856828;29;38253;-82
2022/07/20 11:15:46;;;;;;;12.43;7.10;;;22.10;99.90;;;;;;4858186;29;47331;-82
2022/07/20 11:18:15;;;;;;;12.88;7.15;;;22.20;99.90;;;;;;4857541;29;38873;-82
2022/07/20 11:20:47;;;;;;;13.55;7.20;;;22.30;99.90;;;;;;4873241;29;37842;-81
2022/07/20 11:23:14;;;;;;;15.15;7.35;;;23.20;99.90;;;;;;4856194;29;37705;-81
2022/07/20 11:26:05;;;;;;;11.73;6.70;;;23.70;99.90;;;;;;4858323;29;38091;-80
2022/07/20 11:28:43;;;;;;;13.55;6.80;;;24.30;99.90;;;;;;4853044;29;46752;-81
2022/07/20 11:31:10;;;;;;;12.77;7.47;;;24.50;99.90;;;;;;4839857;29;37528;-80
2022/07/20 11:33:38;;;;;;;12.55;6.93;;;24.30;99.90;;;;;;4839848;29;37768;-81
2022/07/20 11:36:08;;;;;;;13.15;7.40;;;24.50;99.90;;;;;;4856815;29;36974;-81
2022/07/20 11:38:36;;;;;;;17.38;7.55;;;25.00;99.90;;;;;;4835779;29;36607;-80
2022/07/20 11:41:04;;;;;;;13.40;7.22;;;25.00;99.90;;;;;;4855050;29;38668;-81
2022/07/20 11:43:31;;;;;;;11.05;7.65;;;24.80;99.90;;;;;;4852328;29;38251;-81
2022/07/20 11:46:09;;;;;;;16.33;7.70;;;24.70;99.90;;;;;;4838288;29;37527;-82
2022/07/20 11:48:36;;;;;;;10.73;7.72;;;24.80;99.90;;;;;;4854673;29;49334;-81
2022/07/20 11:51:03;;;;;;;11.98;8.35;;;24.70;99.90;;;;;;4836759;29;37591;-81
2022/07/20 11:53:32;;;;;;;12.20;7.38;;;24.70;99.90;;;;;;4839082;29;37497;-81
2022/07/20 11:56:01;;;;;;;14.52;8.20;;;24.80;99.90;;;;;;4853130;29;38008;-81
2022/07/20 11:58:36;;;;;;;11.00;7.95;;;25.00;99.90;;;;;;4855501;29;47371;-81
2022/07/20 12:01:06;;;;;;;15.80;8.00;;;25.00;99.90;;;;;;4839142;29;38960;-80
2022/07/20 12:03:35;;;;;;;14.02;8.35;;;24.60;99.90;;;;;;4838939;29;38652;-80
2022/07/20 12:06:06;;;;;;;21.92;9.68;;;24.30;99.90;;;;;;4852220;29;37900;-81
2022/07/20 12:08:33;;;;;;;18.73;8.52;;;24.40;99.90;;;;;;4836148;29;47176;-81
2022/07/20 12:11:00;;;;;;;11.57;7.78;;;24.30;99.90;;;;;;4855785;29;39458;-80
2022/07/20 12:13:27;;;;;;;18.77;9.07;;;24.40;99.90;;;;;;4836167;29;37268;-81
2022/07/20 12:15:58;;;;;;;13.15;8.35;;;24.60;99.90;;;;;;4839304;29;38431;-81
2022/07/20 12:18:52;;;;;;;15.18;8.73;;;24.70;99.90;;;;;;4838764;29;37221;-80
2022/07/20 12:21:27;;;;;;;13.30;7.45;;;24.70;99.90;;;;;;4837573;29;40247;-80
2022/07/20 12:23:54;;;;;;;11.18;7.32;;;25.40;99.90;;;;;;4836816;29;37498;-83
2022/07/20 12:26:27;;;;;;;17.67;8.00;;;25.80;99.90;;;;;;4853809;29;39462;-79
2022/07/20 12:28:56;;;;;;;18.30;8.18;;;25.90;99.90;;;;;;4843045;29;37090;-78
2022/07/20 12:31:25;;;;;;;15.65;7.47;;;25.90;99.90;;;;;;4855777;29;38319;-80
2022/07/20 12:34:04;;;;;;;10.43;7.25;;;25.80;99.90;;;;;;4857802;29;38417;-80
2022/07/20 12:36:37;;;;;;;18.52;8.48;;;26.20;99.90;;;;;;4848791;29;48094;-80
2022/07/20 12:39:08;;;;;;;12.10;7.40;;;26.10;99.90;;;;;;4870538;29;36907;-79
2022/07/20 12:41:37;;;;;;;13.13;7.45;;;26.10;99.90;;;;;;4854880;29;37657;-79
2022/07/20 12:44:35;;;;;;;13.48;7.65;;;26.00;99.90;;;;;;4844553;29;37839;-80